EDTL METAR and TAF | Updated Today

EDTL METAR

Lahr Airport

Observation time: 9 min. ago

EDTL 080650Z 18006KT 9999 BKN039 06/05 Q1001

Need help? Read our tutorial on how to read METARs or read the parsed version below.

Lahr Airport (EDTL) METAR

  • Weather conditions on Wed, 08 Dec 2021 06:50:00 +0000 (9 min. ago):
  • Present conditions: Dry
  • Clouds: Broken sky at 1189 meters
  • Visibility: Greater than 10 km
  • Wind: 180 degrees at 6 knots
  • Temperature: 6 celsius
  • Dew point: 5 celsius
  • Pressure: 1001 millibars
  • Remarks: None


Useful to know...

EDTL TAF

Lahr Airport

TAF EDTL 071700Z 0718/0724 16004KT CAVOK
Observation time: 13:59 hr. ago
Need help? Read our tutorial on how to read TAFs or read the parsed version below.

Parsed version of TAF for Lahr Airport (EDTL)

  • From 07 December at 18:00 UTC, to day 07 of the month at 24:00 UTC
  • Visibility: Greater than 10 km
  • Wind: 160 degrees at 4